Time;durP1;ratioP1;P1;durP2;ratioP2;P2;SDS_P1;SDS_P2;PMS_P1;PMS_P2;Temp;Humidity;BMP_temperature;BMP_pressure;BME280_temperature;BME280_humidity;BME280_pressure;Samples;Min_cycle;Max_cycle;Signal;HPM_P1;HPM_P2
2021/12/17 00:07:08;;;;;;;;;;;;;;;8.12;68.08;101065.09;4358505;32;35273;-56
2021/12/17 00:09:36;;;;;;;;;;;;;;;8.12;67.67;101068.56;4359065;32;34733;-55
2021/12/17 00:12:04;;;;;;;;;;;;;;;8.08;67.65;101062.56;4360118;32;34244;-56
2021/12/17 00:14:37;;;;;;;;;;;;;;;7.93;68.19;101072.66;4360261;32;34372;-56
2021/12/17 00:17:08;;;;;;;;;;;;;;;8.10;67.29;101070.38;4358700;32;35221;-56
2021/12/17 00:46:36;;;;;;;;;;;;;;;7.78;65.05;101051.19;4359148;32;34590;-56
2021/12/17 00:49:54;;;;;;;;;;;;;;;7.77;64.26;101044.19;4359383;32;34588;-55
2021/12/17 00:52:22;;;;;;;;;;;;;;;7.82;64.12;101049.34;4358602;32;34013;-55
2021/12/17 00:54:49;;;;;;;;;;;;;;;7.78;64.18;101055.59;4359653;32;34041;-55
2021/12/17 00:57:18;;;;;;;;;;;;;;;7.61;64.58;101067.47;4361037;32;35462;-56
2021/12/17 00:59:47;;;;;;;;;;;;;;;7.47;64.75;101059.12;4360321;32;34332;-55
2021/12/17 01:02:15;;;;;;;;;;;;;;;7.47;64.80;101062.59;4361814;32;33868;-55
2021/12/17 01:04:45;;;;;;;;;;;;;;;7.46;64.83;101049.50;4360346;32;34600;-56
2021/12/17 01:07:13;;;;;;;;;;;;;;;7.26;65.18;101055.31;4360571;32;34774;-56
2021/12/17 01:09:40;;;;;;;;;;;;;;;7.27;64.88;101047.41;4360006;32;35155;-55
2021/12/17 01:12:08;;;;;;;;;;;;;;;7.28;64.81;101046.47;4361598;32;34436;-56
2021/12/17 01:14:36;;;;;;;;;;;;;;;7.43;64.17;101025.94;4361290;32;33840;-56
2021/12/17 01:17:04;;;;;;;;;;;;;;;7.36;64.12;101029.66;4360813;32;34837;-55
2021/12/17 01:35:29;;;;;;;;;;;;;;;7.12;64.68;101005.81;4360281;32;34297;-56
2021/12/17 01:43:21;;;;;;;;;;;;;;;6.73;65.54;101016.47;4360160;32;33695;-55
2021/12/17 01:45:49;;;;;;;;;;;;;;;6.74;65.33;101026.06;4361376;32;34875;-55
2021/12/17 01:48:21;;;;;;;;;;;;;;;6.83;64.90;101036.34;4359864;32;34619;-57
2021/12/17 02:01:37;;;;;;;;;;;;;;;7.21;61.58;100991.53;4360259;32;34841;-56
2021/12/17 02:04:06;;;;;;;;;;;;;;;7.39;60.80;100987.53;4361128;32;34281;-55
2021/12/17 02:06:36;;;;;;;;;;;;;;;7.08;62.11;100993.66;4360924;32;34833;-56
2021/12/17 02:09:16;;;;;;;;;;;;;;;7.34;61.17;101002.56;4359314;32;35326;-56
2021/12/17 02:20:27;;;;;;;;;;;;;;;7.46;59.92;100999.56;4361335;32;34238;-55
2021/12/17 02:28:55;;;;;;;;;;;;;;;7.45;59.23;100975.06;4361203;32;34040;-56
2021/12/17 02:31:31;;;;;;;;;;;;;;;7.49;58.79;100968.78;4359875;32;34269;-55
2021/12/17 02:34:03;;;;;;;;;;;;;;;7.64;58.24;100988.50;4360910;32;32832;-57
2021/12/17 02:36:33;;;;;;;;;;;;;;;7.10;59.61;100997.09;4360532;32;34195;-55
2021/12/17 02:47:23;;;;;;;;;;;;;;;7.25;59.08;101033.44;4345445;33;33999;-55
2021/12/17 02:49:50;;;;;;;;;;;;;;;7.39;58.78;101035.69;4346138;33;33820;-55
2021/12/17 02:52:18;;;;;;;;;;;;;;;7.24;58.95;101034.34;4345522;32;35480;-55
2021/12/17 02:54:46;;;;;;;;;;;;;;;7.14;59.46;101040.75;4359559;32;34159;-56
2021/12/17 02:57:13;;;;;;;;;;;;;;;7.29;58.88;101021.94;4358372;32;33217;-55
2021/12/17 02:59:40;;;;;;;;;;;;;;;7.21;59.32;101018.69;4361156;32;34104;-55
2021/12/17 03:02:08;;;;;;;;;;;;;;;7.34;59.03;101015.69;4360253;32;34632;-56
2021/12/17 03:04:36;;;;;;;;;;;;;;;7.24;59.28;101015.09;4360051;32;34648;-56
2021/12/17 03:07:03;;;;;;;;;;;;;;;6.94;60.56;101029.94;4360960;32;34321;-56
2021/12/17 03:09:50;;;;;;;;;;;;;;;6.90;60.75;101019.53;4359575;32;35059;-55
2021/12/17 03:12:25;;;;;;;;;;;;;;;6.87;61.01;101008.22;4360439;32;35352;-56
2021/12/17 03:15:09;;;;;;;;;;;;;;;7.16;60.54;101004.81;4358833;32;35339;-55
2021/12/17 03:25:57;;;;;;;;;;;;;;;6.69;64.42;100991.22;4360615;32;34249;-55
2021/12/17 03:28:24;;;;;;;;;;;;;;;6.86;64.12;101009.13;4360525;32;34622;-55
2021/12/17 03:30:52;;;;;;;;;;;;;;;7.03;64.15;101021.81;4359686;32;34093;-55
2021/12/17 03:33:20;;;;;;;;;;;;;;;6.70;65.86;101019.16;4360423;32;34735;-55
2021/12/17 03:35:49;;;;;;;;;;;;;;;7.00;65.17;101019.25;4358197;32;33770;-55
2021/12/17 03:38:16;;;;;;;;;;;;;;;7.07;65.27;101033.94;4360942;32;33607;-56
2021/12/17 03:40:44;;;;;;;;;;;;;;;6.94;65.77;101022.03;4359503;32;33682;-55
2021/12/17 03:43:21;;;;;;;;;;;;;;;7.11;65.54;101038.22;4360425;32;35596;-56
2021/12/17 03:45:48;;;;;;;;;;;;;;;6.86;66.43;101031.00;4360393;32;33464;-56
2021/12/17 03:48:16;;;;;;;;;;;;;;;6.76;67.07;101034.75;4359434;32;33547;-55
2021/12/17 03:50:43;;;;;;;;;;;;;;;6.76;66.79;101029.50;4360691;32;34607;-55
2021/12/17 03:53:11;;;;;;;;;;;;;;;6.90;66.53;101016.91;4359451;32;35221;-56
2021/12/17 03:55:38;;;;;;;;;;;;;;;7.00;66.24;101024.50;4359906;32;34121;-55
2021/12/17 03:58:06;;;;;;;;;;;;;;;7.08;65.86;101004.16;4359695;32;34459;-56
2021/12/17 04:00:33;;;;;;;;;;;;;;;7.12;65.70;100999.69;4360341;32;34319;-56
2021/12/17 04:03:02;;;;;;;;;;;;;;;7.14;65.38;101004.00;4357965;32;34606;-55
2021/12/17 04:05:31;;;;;;;;;;;;;;;6.93;66.13;101007.22;4358651;32;34424;-56
2021/12/17 04:08:09;;;;;;;;;;;;;;;7.04;65.45;101013.88;4360554;32;33274;-55
2021/12/17 04:10:43;;;;;;;;;;;;;;;6.98;65.76;101015.81;4359141;32;34086;-56
2021/12/17 04:13:24;;;;;;;;;;;;;;;7.19;64.82;101014.34;4360164;32;34624;-56
2021/12/17 04:16:02;;;;;;;;;;;;;;;7.03;65.29;101021.81;4359881;32;34160;-55
2021/12/17 04:18:29;;;;;;;;;;;;;;;6.96;65.61;101026.38;4359289;32;33428;-56
2021/12/17 04:20:59;;;;;;;;;;;;;;;6.94;65.58;101032.53;4360391;32;34533;-55
2021/12/17 04:23:26;;;;;;;;;;;;;;;7.17;64.57;101037.19;4358749;32;34762;-56
2021/12/17 04:25:54;;;;;;;;;;;;;;;7.03;64.90;101032.31;4359617;32;35162;-55
2021/12/17 04:28:21;;;;;;;;;;;;;;;7.19;64.24;101048.50;4359687;32;33468;-55
2021/12/17 04:30:50;;;;;;;;;;;;;;;7.11;64.48;101046.09;4361059;32;35082;-56
2021/12/17 04:33:18;;;;;;;;;;;;;;;7.06;64.62;101046.22;4364950;32;35791;-56
2021/12/17 04:35:46;;;;;;;;;;;;;;;7.14;64.34;101051.28;4363280;32;34068;-56
2021/12/17 04:38:15;;;;;;;;;;;;;;;7.09;64.27;101053.16;4365155;32;33969;-56
2021/12/17 04:40:44;;;;;;;;;;;;;;;7.00;64.68;101056.00;4363572;32;33449;-56
2021/12/17 04:43:20;;;;;;;;;;;;;;;7.28;63.71;101046.47;4364447;32;35493;-56
2021/12/17 04:59:32;;;;;;;;;;;;;;;6.50;65.94;101027.56;4364742;32;34065;-56
2021/12/17 05:02:02;;;;;;;;;;;;;;;6.43;66.51;101033.84;4356530;32;33703;-56
2021/12/17 05:04:30;;;;;;;;;;;;;;;6.53;66.12;101018.75;4364415;32;34666;-55
2021/12/17 05:06:58;;;;;;;;;;;;;;;6.71;65.50;101023.53;4363686;32;34208;-56
2021/12/17 05:09:34;;;;;;;;;;;;;;;6.61;65.89;101011.53;4364581;32;34404;-55
2021/12/17 05:20:11;;;;;;;;;;;;;;;6.26;67.16;100982.69;4348503;33;34349;-55
2021/12/17 05:22:43;;;;;;;;;;;;;;;6.29;67.17;100985.19;4354273;32;34931;-55
2021/12/17 05:25:10;;;;;;;;;;;;;;;6.08;67.84;100978.72;4364458;32;35259;-56
2021/12/17 05:27:38;;;;;;;;;;;;;;;6.06;68.15;100979.66;4362896;32;34907;-55
2021/12/17 05:30:05;;;;;;;;;;;;;;;6.03;67.98;100983.22;4364129;32;33217;-56
2021/12/17 05:32:33;;;;;;;;;;;;;;;5.92;68.20;100977.34;4363150;32;34757;-55
2021/12/17 05:35:00;;;;;;;;;;;;;;;5.81;68.68;100987.19;4364096;32;34270;-55
2021/12/17 05:37:28;;;;;;;;;;;;;;;5.95;67.91;100985.16;4363536;32;35232;-55
2021/12/17 05:39:55;;;;;;;;;;;;;;;6.06;67.68;100993.63;4362312;32;34536;-55
2021/12/17 05:42:23;;;;;;;;;;;;;;;6.09;67.41;100985.69;4361802;32;34004;-56
2021/12/17 05:44:59;;;;;;;;;;;;;;;6.05;67.51;100972.72;4358826;32;34166;-55
2021/12/17 05:47:26;;;;;;;;;;;;;;;5.98;67.73;100977.22;4361309;32;35397;-55
2021/12/17 05:49:54;;;;;;;;;;;;;;;6.05;67.10;100980.56;4359005;32;33830;-55
2021/12/17 05:52:21;;;;;;;;;;;;;;;6.27;66.69;100988.78;4360904;32;33959;-55
2021/12/17 05:54:48;;;;;;;;;;;;;;;5.96;67.65;100989.50;4360763;32;35084;-55
2021/12/17 05:57:16;;;;;;;;;;;;;;;5.98;67.51;100998.19;4360164;32;34575;-55
2021/12/17 05:59:45;;;;;;;;;;;;;;;6.12;67.20;100998.72;4347175;32;32955;-55
2021/12/17 06:02:14;;;;;;;;;;;;;;;6.02;67.50;101001.62;4359984;32;33839;-56
2021/12/17 06:04:42;;;;;;;;;;;;;;;6.12;67.17;101003.09;4361190;32;34198;-55
2021/12/17 06:07:09;;;;;;;;;;;;;;;5.89;67.54;100999.25;4359660;32;34142;-55
2021/12/17 06:09:37;;;;;;;;;;;;;;;6.05;67.02;100984.06;4360179;32;33699;-55
2021/12/17 06:12:05;;;;;;;;;;;;;;;6.10;66.85;100981.31;4359780;32;34698;-55
2021/12/17 06:14:32;;;;;;;;;;;;;;;5.97;67.36;100980.75;4360549;32;33867;-56
2021/12/17 06:16:59;;;;;;;;;;;;;;;5.92;67.69;100990.44;4360851;32;35171;-55
2021/12/17 06:19:27;;;;;;;;;;;;;;;5.83;68.02;101003.75;4358619;32;33462;-55
2021/12/17 06:21:58;;;;;;;;;;;;;;;5.78;67.87;101006.50;4360696;32;34698;-55
2021/12/17 06:24:26;;;;;;;;;;;;;;;5.67;68.26;100998.84;4359763;32;34828;-55
2021/12/17 06:26:55;;;;;;;;;;;;;;;5.62;68.37;101005.97;4360956;32;34625;-55
2021/12/17 06:29:23;;;;;;;;;;;;;;;5.70;68.19;100993.56;4360838;32;32957;-56
2021/12/17 06:31:51;;;;;;;;;;;;;;;5.71;68.04;100991.78;4360098;32;35085;-55
2021/12/17 06:34:19;;;;;;;;;;;;;;;5.84;67.25;101000.25;4361065;32;34345;-55
2021/12/17 06:36:46;;;;;;;;;;;;;;;5.78;67.32;101002.97;4359147;32;34558;-55
2021/12/17 06:39:13;;;;;;;;;;;;;;;5.76;67.66;101008.28;4360254;32;33701;-55
2021/12/17 06:41:42;;;;;;;;;;;;;;;5.94;69.05;101014.00;4358710;32;34945;-55
2021/12/17 06:44:13;;;;;;;;;;;;;;;6.00;66.55;101027.88;4360443;32;34836;-55
2021/12/17 07:33:06;;;;;;;;;;;;;;;6.17;65.40;101073.84;4360200;32;34028;-55
2021/12/17 07:40:52;;;;;;;;;;;;;;;6.46;64.51;101105.50;4352868;32;34410;-56
2021/12/17 07:43:29;;;;;;;;;;;;;;;6.78;63.29;101109.09;4346090;33;33616;-55
2021/12/17 07:45:56;;;;;;;;;;;;;;;6.37;64.64;101110.09;4359405;32;33887;-54
2021/12/17 07:48:24;;;;;;;;;;;;;;;6.24;65.08;101101.63;4360647;32;34291;-56
2021/12/17 07:50:51;;;;;;;;;;;;;;;6.66;63.73;101105.00;4358841;32;35008;-55
2021/12/17 07:53:20;;;;;;;;;;;;;;;6.66;63.70;101106.78;4359932;32;33297;-55
2021/12/17 07:55:48;;;;;;;;;;;;;;;6.67;63.64;101109.38;4359851;32;34668;-55
2021/12/17 07:58:15;;;;;;;;;;;;;;;6.64;63.64;101116.44;4359025;32;35595;-55
2021/12/17 08:00:43;;;;;;;;;;;;;;;6.79;63.06;101134.47;4360608;32;34395;-55
2021/12/17 08:03:14;;;;;;;;;;;;;;;6.83;63.09;101136.09;4372179;32;34626;-55
2021/12/17 08:05:42;;;;;;;;;;;;;;;6.85;63.19;101125.56;4363428;32;34168;-55
2021/12/17 08:08:10;;;;;;;;;;;;;;;6.88;62.78;101117.59;4359397;32;34763;-55
2021/12/17 08:10:38;;;;;;;;;;;;;;;6.81;62.95;101122.16;4359233;32;34687;-55
2021/12/17 08:13:07;;;;;;;;;;;;;;;6.77;62.92;101131.00;4360050;32;32980;-55
2021/12/17 08:15:43;;;;;;;;;;;;;;;6.79;62.90;101139.72;4359049;32;35295;-56
2021/12/17 08:18:30;;;;;;;;;;;;;;;6.90;62.56;101140.31;4359611;32;36223;-55
2021/12/17 08:24:28;;;;;;;;;;;;;;;7.60;64.09;101128.84;4359776;32;33590;-55
2021/12/17 08:31:33;;;;;;;;;;;;;;;7.12;62.05;101125.78;4360123;32;34021;-56
2021/12/17 08:34:03;;;;;;;;;;;;;;;7.27;61.31;101135.88;4359266;32;33669;-55
2021/12/17 08:36:31;;;;;;;;;;;;;;;7.40;60.74;101123.25;4359477;32;34244;-55
2021/12/17 08:38:59;;;;;;;;;;;;;;;7.39;61.03;101125.03;4359790;32;34418;-55
2021/12/17 08:41:27;;;;;;;;;;;;;;;7.34;61.00;101128.69;4359098;32;34856;-55
2021/12/17 08:43:55;;;;;;;;;;;;;;;7.72;60.18;101134.69;4359906;32;33290;-55
2021/12/17 08:46:23;;;;;;;;;;;;;;;7.38;60.93;101127.69;4358754;32;33800;-56
2021/12/17 08:48:52;;;;;;;;;;;;;;;7.16;61.66;101132.69;4359984;32;35003;-55
2021/12/17 08:51:20;;;;;;;;;;;;;;;7.27;61.46;101128.00;4359088;32;34494;-55
2021/12/17 08:53:47;;;;;;;;;;;;;;;7.09;61.79;101129.31;4359261;32;33756;-55
2021/12/17 08:56:20;;;;;;;;;;;;;;;7.39;61.26;101127.66;4359863;32;34325;-55
2021/12/17 08:58:51;;;;;;;;;;;;;;;7.39;61.15;101116.31;4358295;32;34887;-55
2021/12/17 09:01:20;;;;;;;;;;;;;;;7.17;62.10;101119.47;4359558;32;34699;-55
2021/12/17 09:03:47;;;;;;;;;;;;;;;7.55;60.74;101119.38;4358549;32;33427;-55
2021/12/17 09:06:24;;;;;;;;;;;;;;;7.37;61.30;101132.09;4359606;32;33819;-55
2021/12/17 09:08:54;;;;;;;;;;;;;;;7.44;60.88;101130.16;4359250;32;35278;-55
2021/12/17 09:11:23;;;;;;;;;;;;;;;7.51;60.71;101130.88;4358643;32;35185;-55
2021/12/17 09:13:51;;;;;;;;;;;;;;;7.41;61.04;101119.75;4359427;32;33805;-55
2021/12/17 09:16:20;;;;;;;;;;;;;;;7.44;60.91;101120.53;4358201;32;33785;-55
2021/12/17 09:18:52;;;;;;;;;;;;;;;7.62;60.59;101111.25;4361440;32;34391;-55
2021/12/17 09:21:22;;;;;;;;;;;;;;;7.50;60.84;101122.09;4360668;32;34595;-56
2021/12/17 09:23:52;;;;;;;;;;;;;;;7.61;60.33;101109.53;4361338;32;34189;-55
2021/12/17 09:26:20;;;;;;;;;;;;;;;7.51;60.71;101105.44;4361470;32;34548;-55
2021/12/17 09:28:48;;;;;;;;;;;;;;;7.57;60.56;101101.78;4360391;32;35360;-56
2021/12/17 09:31:15;;;;;;;;;;;;;;;7.64;60.49;101098.94;4361531;32;34893;-55
2021/12/17 09:33:44;;;;;;;;;;;;;;;7.58;60.77;101085.09;4358878;32;33752;-55
2021/12/17 09:36:11;;;;;;;;;;;;;;;7.51;60.71;101087.03;4361674;32;33555;-55
2021/12/17 09:38:38;;;;;;;;;;;;;;;7.87;59.69;101078.97;4360216;32;36318;-55
2021/12/17 09:41:06;;;;;;;;;;;;;;;7.82;60.01;101075.62;4361184;32;35011;-56
2021/12/17 09:43:35;;;;;;;;;;;;;;;7.80;60.23;101077.47;4361079;32;34438;-55
2021/12/17 09:46:04;;;;;;;;;;;;;;;7.87;59.41;101073.72;4360393;32;34595;-55
2021/12/17 09:48:32;;;;;;;;;;;;;;;7.84;59.95;101064.16;4361210;32;34771;-55
2021/12/17 09:51:01;;;;;;;;;;;;;;;7.97;59.71;101080.44;4360009;32;35752;-55
2021/12/17 09:53:29;;;;;;;;;;;;;;;7.92;59.36;101073.59;4361333;32;33244;-56
2021/12/17 09:55:56;;;;;;;;;;;;;;;8.16;59.07;101079.88;4360218;32;34236;-55
2021/12/17 09:58:23;;;;;;;;;;;;;;;8.16;58.80;101074.59;4360789;32;34819;-56
2021/12/17 10:00:50;;;;;;;;;;;;;;;8.19;58.84;101078.00;4361085;32;34216;-55
2021/12/17 10:03:19;;;;;;;;;;;;;;;8.21;58.70;101084.06;4360069;32;33499;-56
2021/12/17 10:05:46;;;;;;;;;;;;;;;8.39;57.90;101087.91;4361180;32;33632;-56
2021/12/17 10:08:16;;;;;;;;;;;;;;;8.27;58.23;101085.66;4359995;32;35393;-55
2021/12/17 10:10:45;;;;;;;;;;;;;;;8.13;58.84;101064.19;4361058;32;34971;-55
2021/12/17 10:13:13;;;;;;;;;;;;;;;8.26;57.83;101071.66;4360233;32;33265;-55
2021/12/17 10:15:41;;;;;;;;;;;;;;;8.09;58.34;101066.91;4360651;32;34551;-55
2021/12/17 10:18:09;;;;;;;;;;;;;;;8.28;58.62;101082.13;4358898;32;34334;-56
2021/12/17 10:20:41;;;;;;;;;;;;;;;8.44;57.43;101078.13;4359787;32;34324;-56
2021/12/17 10:23:09;;;;;;;;;;;;;;;8.51;57.48;101078.81;4360893;32;33856;-56
2021/12/17 10:25:38;;;;;;;;;;;;;;;8.62;57.28;101074.03;4358431;32;35155;-55
2021/12/17 10:28:05;;;;;;;;;;;;;;;8.90;56.24;101064.31;4355972;32;34273;-56
2021/12/17 10:30:37;;;;;;;;;;;;;;;8.95;56.93;101078.22;4360200;32;35209;-55
2021/12/17 10:33:06;;;;;;;;;;;;;;;9.16;55.26;101066.06;4360384;32;33680;-55
2021/12/17 10:35:35;;;;;;;;;;;;;;;8.97;55.64;101058.78;4360880;32;33749;-55
2021/12/17 10:38:08;;;;;;;;;;;;;;;8.76;56.24;101055.16;4359452;32;35519;-56
2021/12/17 10:40:36;;;;;;;;;;;;;;;8.84;56.10;101046.97;4360629;32;34635;-55
2021/12/17 10:43:13;;;;;;;;;;;;;;;8.80;56.07;101043.59;4345982;32;32738;-55
2021/12/17 10:45:44;;;;;;;;;;;;;;;8.74;55.80;101040.28;4360641;32;34314;-55
2021/12/17 10:51:07;;;;;;;;;;;;;;;8.81;55.83;101026.87;4359406;32;34624;-55
2021/12/17 10:53:34;;;;;;;;;;;;;;;8.96;54.66;101032.53;4364095;32;33407;-55
2021/12/17 10:56:02;;;;;;;;;;;;;;;8.87;54.74;101034.53;4373338;32;34022;-55
2021/12/17 10:58:29;;;;;;;;;;;;;;;8.78;55.01;101045.44;4365856;32;34062;-55
2021/12/17 11:00:58;;;;;;;;;;;;;;;8.59;55.83;101032.00;4370441;32;35057;-56
2021/12/17 11:03:26;;;;;;;;;;;;;;;8.95;55.21;101043.97;4358994;32;33641;-55
2021/12/17 11:05:53;;;;;;;;;;;;;;;8.83;55.37;101040.84;4358381;32;34321;-55
2021/12/17 11:08:28;;;;;;;;;;;;;;;8.79;55.83;101033.97;4359122;32;34837;-55
2021/12/17 11:10:58;;;;;;;;;;;;;;;8.67;55.29;101035.25;4361106;32;35170;-55
2021/12/17 11:13:25;;;;;;;;;;;;;;;8.87;54.74;101037.19;4354122;32;33977;-56
2021/12/17 11:15:53;;;;;;;;;;;;;;;8.38;56.12;101035.31;4358895;32;34312;-56
2021/12/17 11:18:20;;;;;;;;;;;;;;;8.73;55.87;101025.41;4359638;32;34229;-56
2021/12/17 11:20:48;;;;;;;;;;;;;;;8.98;55.10;101023.66;4372151;32;33673;-55
2021/12/17 11:23:16;;;;;;;;;;;;;;;8.90;54.95;101028.34;4362274;32;34376;-55
2021/12/17 11:25:45;;;;;;;;;;;;;;;9.16;54.21;101030.03;4358041;32;34400;-55
2021/12/17 11:28:13;;;;;;;;;;;;;;;8.86;55.05;101024.94;4357881;32;34749;-56
2021/12/17 11:30:42;;;;;;;;;;;;;;;9.16;54.35;101026.53;4361805;32;33992;-55
2021/12/17 11:33:09;;;;;;;;;;;;;;;9.14;54.47;101023.97;4363076;32;33479;-56
2021/12/17 11:35:38;;;;;;;;;;;;;;;9.07;54.21;101031.22;4357708;32;34101;-56
2021/12/17 11:38:06;;;;;;;;;;;;;;;9.06;54.23;101032.12;4357933;32;34442;-55
2021/12/17 11:40:34;;;;;;;;;;;;;;;9.21;53.90;101017.56;4356848;32;35321;-55
2021/12/17 11:43:05;;;;;;;;;;;;;;;9.25;53.84;101013.03;4357613;32;33424;-56
2021/12/17 11:45:34;;;;;;;;;;;;;;;8.93;54.49;101024.72;4357221;32;34339;-55
2021/12/17 11:48:13;;;;;;;;;;;;;;;8.71;54.94;101014.09;4356248;32;34216;-55
2021/12/17 11:50:41;;;;;;;;;;;;;;;8.89;54.89;101012.56;4357934;32;34880;-55
2021/12/17 11:53:19;;;;;;;;;;;;;;;8.66;55.25;101022.12;4357924;32;33818;-55
2021/12/17 11:55:47;;;;;;;;;;;;;;;8.85;54.98;101017.09;4358053;32;33985;-55
2021/12/17 11:58:35;;;;;;;;;;;;;;;9.04;53.76;101022.56;4360117;32;33586;-55
2021/12/17 12:01:02;;;;;;;;;;;;;;;9.07;54.15;101040.87;4359237;32;34078;-55
2021/12/17 12:03:29;;;;;;;;;;;;;;;9.00;54.56;101032.34;4357880;32;33086;-55
2021/12/17 12:05:58;;;;;;;;;;;;;;;8.99;54.09;101038.53;4357225;32;35051;-56
2021/12/17 12:08:26;;;;;;;;;;;;;;;8.76;54.01;101035.84;4362349;32;35601;-55
2021/12/17 12:11:02;;;;;;;;;;;;;;;8.87;54.20;101042.44;4357804;32;33990;-56
2021/12/17 12:13:40;;;;;;;;;;;;;;;8.81;53.94;101026.87;4358180;32;33323;-56
2021/12/17 12:16:09;;;;;;;;;;;;;;;8.94;53.44;101032.56;4357972;32;34614;-56
2021/12/17 12:18:50;;;;;;;;;;;;;;;9.13;52.86;101038.06;4357415;32;34969;-56
2021/12/17 12:21:24;;;;;;;;;;;;;;;8.82;53.69;101033.87;4356908;32;34374;-56
2021/12/17 12:23:52;;;;;;;;;;;;;;;9.05;53.28;101034.81;4347353;32;33820;-56
2021/12/17 12:26:20;;;;;;;;;;;;;;;8.96;53.35;101036.00;4357689;32;34779;-56
2021/12/17 12:28:56;;;;;;;;;;;;;;;9.16;53.12;101030.03;4357807;32;34495;-56
2021/12/17 12:31:26;;;;;;;;;;;;;;;8.98;53.19;101030.69;4357054;32;34749;-56
2021/12/17 12:34:13;;;;;;;;;;;;;;;9.05;53.25;101032.19;4357372;32;33263;-56
2021/12/17 12:37:06;;;;;;;;;;;;;;;9.19;52.13;101027.28;4356800;32;35732;-56
2021/12/17 12:39:42;;;;;;;;;;;;;;;9.28;52.31;101023.44;4357091;32;34426;-56
2021/12/17 12:42:17;;;;;;;;;;;;;;;9.05;53.30;101029.53;4358224;32;35253;-56
2021/12/17 12:44:44;;;;;;;;;;;;;;;9.22;53.18;101021.91;4357120;32;33106;-56
2021/12/17 12:47:15;;;;;;;;;;;;;;;9.04;53.64;101017.31;4357831;32;34399;-56
2021/12/17 12:49:49;;;;;;;;;;;;;;;9.14;53.28;101007.28;4357170;32;34201;-56
2021/12/17 12:52:22;;;;;;;;;;;;;;;9.01;53.47;101020.88;4357449;32;34479;-56
2021/12/17 12:55:08;;;;;;;;;;;;;;;8.95;53.43;101031.66;4359377;32;33694;-56
2021/12/17 12:57:37;;;;;;;;;;;;;;;9.07;53.44;101028.59;4358700;32;35135;-56
2021/12/17 13:00:11;;;;;;;;;;;;;;;9.27;53.04;101024.38;4358685;32;34910;-55
2021/12/17 13:02:39;;;;;;;;;;;;;;;9.27;52.83;101024.38;4369205;32;33909;-56
2021/12/17 13:05:07;;;;;;;;;;;;;;;9.13;52.86;101021.38;4373892;32;34085;-56
2021/12/17 13:07:37;;;;;;;;;;;;;;;8.93;53.73;101017.66;4363793;32;33724;-56
2021/12/17 13:10:10;;;;;;;;;;;;;;;8.95;53.47;101015.84;4358598;32;34599;-56
2021/12/17 13:12:38;;;;;;;;;;;;;;;9.08;53.74;101024.19;4348341;32;34717;-56
2021/12/17 13:15:16;;;;;;;;;;;;;;;9.03;53.72;101034.00;4354980;32;95047;-56
2021/12/17 13:20:28;;;;;;;;;;;;;;;8.83;54.29;101032.94;4358005;32;35306;-56
2021/12/17 13:23:25;;;;;;;;;;;;;;;8.87;54.03;101028.44;4358726;32;33957;-56
2021/12/17 13:26:00;;;;;;;;;;;;;;;8.71;54.87;101021.97;4350023;32;34012;-56
2021/12/17 13:28:28;;;;;;;;;;;;;;;8.88;54.60;101019.63;4358887;32;34421;-56
2021/12/17 13:30:56;;;;;;;;;;;;;;;8.92;53.89;101017.72;4358869;32;34555;-56
2021/12/17 13:33:34;;;;;;;;;;;;;;;8.80;54.20;101030.44;4357830;32;33916;-56
2021/12/17 13:36:03;;;;;;;;;;;;;;;8.59;54.70;101016.22;4358808;32;33050;-56
2021/12/17 13:38:32;;;;;;;;;;;;;;;8.73;54.45;101018.38;4359218;32;34822;-56
2021/12/17 13:40:59;;;;;;;;;;;;;;;8.89;53.43;101025.75;4358794;32;34975;-56
2021/12/17 13:43:27;;;;;;;;;;;;;;;8.85;53.59;101031.09;4358635;32;34811;-56
2021/12/17 13:45:55;;;;;;;;;;;;;;;8.99;53.30;101027.97;4359317;32;33245;-56
2021/12/17 13:48:22;;;;;;;;;;;;;;;9.01;53.40;101030.56;4358622;32;34493;-56
2021/12/17 13:50:50;;;;;;;;;;;;;;;8.80;53.74;101032.19;4357416;32;34293;-56
2021/12/17 13:53:17;;;;;;;;;;;;;;;8.52;54.40;101040.16;4358587;32;34497;-56
2021/12/17 13:56:05;;;;;;;;;;;;;;;8.64;54.19;101039.75;4358971;32;32933;-56
2021/12/17 13:58:34;;;;;;;;;;;;;;;8.67;53.96;101050.19;4358680;32;35849;-56
2021/12/17 14:01:01;;;;;;;;;;;;;;;8.45;54.37;101048.28;4357183;32;34556;-56
2021/12/17 14:03:33;;;;;;;;;;;;;;;8.57;54.12;101049.63;4357988;32;33812;-56
2021/12/17 14:06:17;;;;;;;;;;;;;;;8.52;54.05;101051.56;4357767;32;34335;-56
2021/12/17 14:08:44;;;;;;;;;;;;;;;8.69;54.05;101053.63;4371533;32;33735;-56
2021/12/17 14:11:18;;;;;;;;;;;;;;;8.64;53.71;101061.66;4363924;32;35815;-56
2021/12/17 14:14:19;;;;;;;;;;;;;;;8.53;54.15;101068.19;4343869;33;34320;-56
2021/12/17 14:16:46;;;;;;;;;;;;;;;8.43;54.32;101060.63;4357917;32;33788;-56
2021/12/17 14:19:13;;;;;;;;;;;;;;;8.53;53.98;101055.03;4371782;32;34832;-56
2021/12/17 14:21:40;;;;;;;;;;;;;;;8.34;54.49;101047.72;4364282;32;34423;-56
2021/12/17 14:24:08;;;;;;;;;;;;;;;8.40;54.38;101044.88;4357114;32;34267;-56
2021/12/17 14:26:35;;;;;;;;;;;;;;;8.36;54.38;101035.38;4356323;32;33397;-56
2021/12/17 14:29:09;;;;;;;;;;;;;;;8.24;54.77;101035.78;4365422;32;33941;-56
2021/12/17 14:31:37;;;;;;;;;;;;;;;8.51;53.95;101035.78;4359684;32;34612;-56
2021/12/17 14:34:04;;;;;;;;;;;;;;;8.26;54.80;101032.16;4358636;32;34016;-55
2021/12/17 14:36:38;;;;;;;;;;;;;;;7.98;55.50;101029.53;4345143;32;33054;-55
2021/12/17 14:39:20;;;;;;;;;;;;;;;7.98;55.57;101029.53;4358999;32;34227;-55
2021/12/17 14:41:55;;;;;;;;;;;;;;;8.00;55.56;101030.34;4358240;32;34263;-56
2021/12/17 15:02:53;;;;;;;;;;;;;;;7.63;56.83;101013.06;4358695;32;34707;-56
2021/12/17 15:05:22;;;;;;;;;;;;;;;7.69;56.67;101007.63;4358441;32;34501;-55
2021/12/17 15:07:49;;;;;;;;;;;;;;;7.57;56.72;101010.63;4365715;32;33234;-56
2021/12/17 15:10:19;;;;;;;;;;;;;;;7.46;57.40;101015.34;4373603;32;33852;-55
2021/12/17 15:12:46;;;;;;;;;;;;;;;7.35;57.56;101007.78;4373724;32;34222;-55
2021/12/17 15:15:13;;;;;;;;;;;;;;;7.52;57.10;101014.28;4372464;32;34567;-56
2021/12/17 15:17:41;;;;;;;;;;;;;;;7.33;57.75;101014.84;4362867;32;34507;-56
2021/12/17 15:20:19;;;;;;;;;;;;;;;7.28;57.84;101008.84;4356969;32;33985;-56
2021/12/17 15:22:46;;;;;;;;;;;;;;;7.21;58.29;101002.91;4360076;32;35933;-56
2021/12/17 15:25:14;;;;;;;;;;;;;;;7.45;57.41;101011.00;4373382;32;34216;-56
2021/12/17 15:27:41;;;;;;;;;;;;;;;7.60;56.71;101020.19;4369117;32;33717;-56
2021/12/17 15:30:20;;;;;;;;;;;;;;;7.24;57.83;101020.34;4373764;32;33602;-55
2021/12/17 15:32:48;;;;;;;;;;;;;;;7.36;57.52;101019.13;4373378;32;34316;-56
2021/12/17 15:35:22;;;;;;;;;;;;;;;7.05;58.52;101012.97;4373101;32;34814;-56
2021/12/17 15:37:50;;;;;;;;;;;;;;;7.17;58.01;101014.38;4373449;32;32651;-56
2021/12/17 15:40:17;;;;;;;;;;;;;;;7.16;57.93;101030.22;4373305;32;34041;-55
2021/12/17 15:42:45;;;;;;;;;;;;;;;7.03;58.91;101029.69;4372071;32;33274;-55
2021/12/17 15:45:12;;;;;;;;;;;;;;;7.25;58.56;101017.69;4367336;32;34515;-55
2021/12/17 15:47:39;;;;;;;;;;;;;;;7.12;57.89;101018.94;4358364;32;33655;-55
2021/12/17 15:50:07;;;;;;;;;;;;;;;6.93;58.56;101026.44;4363317;32;34112;-55
2021/12/17 15:52:47;;;;;;;;;;;;;;;7.18;57.87;101018.75;4373544;32;34815;-55
2021/12/17 15:55:14;;;;;;;;;;;;;;;7.08;58.07;101027.81;4365999;32;34815;-55
2021/12/17 15:57:42;;;;;;;;;;;;;;;7.06;58.12;101014.72;4358374;32;33058;-55
2021/12/17 16:00:10;;;;;;;;;;;;;;;7.22;57.49;101011.66;4358816;32;33700;-56
2021/12/17 16:02:40;;;;;;;;;;;;;;;7.00;58.14;101019.25;4357706;32;34069;-56
2021/12/17 16:05:09;;;;;;;;;;;;;;;7.12;58.14;101015.44;4358485;32;34918;-56
2021/12/17 16:07:36;;;;;;;;;;;;;;;7.12;57.57;101003.16;4360034;32;33608;-55
2021/12/17 16:23:31;;;;;;;;;;;;;;;6.68;58.95;101015.72;4357957;32;34732;-56
2021/12/17 16:25:59;;;;;;;;;;;;;;;6.85;58.37;101020.53;4357342;32;34133;-55
2021/12/17 16:28:27;;;;;;;;;;;;;;;6.86;58.38;101014.38;4359580;32;33649;-55
2021/12/17 16:31:02;;;;;;;;;;;;;;;6.86;58.28;101003.88;4358043;32;34980;-55
2021/12/17 16:33:29;;;;;;;;;;;;;;;6.77;58.66;101010.25;4357272;32;34265;-56
2021/12/17 16:36:00;;;;;;;;;;;;;;;7.23;57.46;101010.72;4357485;32;35363;-55
2021/12/17 16:38:27;;;;;;;;;;;;;;;6.86;58.29;101017.88;4357804;32;33585;-55